sensor_id;sensor_type;location;lat;lon;timestamp;temperature;humidity
76613;DHT22;65507;48.454;-2.058;2023-12-20T00:00:58;9.30;85.80
76613;DHT22;65507;48.454;-2.058;2023-12-20T00:03:24;9.30;85.80
76613;DHT22;65507;48.454;-2.058;2023-12-20T00:05:50;9.20;85.80
76613;DHT22;65507;48.454;-2.058;2023-12-20T00:08:16;9.20;85.90
76613;DHT22;65507;48.454;-2.058;2023-12-20T00:10:42;9.20;85.90
76613;DHT22;65507;48.454;-2.058;2023-12-20T00:13:08;9.20;85.90
76613;DHT22;65507;48.454;-2.058;2023-12-20T00:15:34;9.30;85.90
76613;DHT22;65507;48.454;-2.058;2023-12-20T00:18:00;9.30;85.70
76613;DHT22;65507;48.454;-2.058;2023-12-20T00:20:26;9.40;85.60
76613;DHT22;65507;48.454;-2.058;2023-12-20T00:22:54;9.50;85.50
76613;DHT22;65507;48.454;-2.058;2023-12-20T00:25:20;9.50;85.30
76613;DHT22;65507;48.454;-2.058;2023-12-20T00:27:45;9.60;85.30
76613;DHT22;65507;48.454;-2.058;2023-12-20T00:30:11;9.60;85.10
76613;DHT22;65507;48.454;-2.058;2023-12-20T00:32:40;9.60;85.20
76613;DHT22;65507;48.454;-2.058;2023-12-20T00:35:12;9.60;85.20
76613;DHT22;65507;48.454;-2.058;2023-12-20T00:37:38;9.60;85.20
76613;DHT22;65507;48.454;-2.058;2023-12-20T00:40:04;9.60;85.20
76613;DHT22;65507;48.454;-2.058;2023-12-20T00:42:30;9.70;85.20
76613;DHT22;65507;48.454;-2.058;2023-12-20T00:44:55;9.70;85.00
76613;DHT22;65507;48.454;-2.058;2023-12-20T00:47:21;9.70;85.00
76613;DHT22;65507;48.454;-2.058;2023-12-20T00:49:47;9.70;84.90
76613;DHT22;65507;48.454;-2.058;2023-12-20T00:52:13;9.80;84.80
76613;DHT22;65507;48.454;-2.058;2023-12-20T00:54:39;9.80;84.70
76613;DHT22;65507;48.454;-2.058;2023-12-20T00:57:05;9.80;84.70
76613;DHT22;65507;48.454;-2.058;2023-12-20T00:59:30;9.80;84.70
76613;DHT22;65507;48.454;-2.058;2023-12-20T01:01:56;9.80;84.50
76613;DHT22;65507;48.454;-2.058;2023-12-20T01:04:22;9.80;84.50
76613;DHT22;65507;48.454;-2.058;2023-12-20T01:06:47;9.80;84.50
76613;DHT22;65507;48.454;-2.058;2023-12-20T01:09:13;9.80;84.50
76613;DHT22;65507;48.454;-2.058;2023-12-20T01:11:39;9.80;84.50
76613;DHT22;65507;48.454;-2.058;2023-12-20T01:14:05;9.80;84.60
76613;DHT22;65507;48.454;-2.058;2023-12-20T01:16:31;9.80;84.70
76613;DHT22;65507;48.454;-2.058;2023-12-20T01:18:56;9.80;84.80
76613;DHT22;65507;48.454;-2.058;2023-12-20T01:21:22;9.80;84.90
76613;DHT22;65507;48.454;-2.058;2023-12-20T01:23:47;9.80;84.80
76613;DHT22;65507;48.454;-2.058;2023-12-20T01:26:14;9.80;84.90
76613;DHT22;65507;48.454;-2.058;2023-12-20T01:28:40;9.90;84.90
76613;DHT22;65507;48.454;-2.058;2023-12-20T01:31:06;9.90;84.90
76613;DHT22;65507;48.454;-2.058;2023-12-20T01:33:31;9.90;85.90
76613;DHT22;65507;48.454;-2.058;2023-12-20T01:36:00;9.90;85.10
76613;DHT22;65507;48.454;-2.058;2023-12-20T01:38:25;9.80;85.10
76613;DHT22;65507;48.454;-2.058;2023-12-20T01:40:51;9.90;85.50
76613;DHT22;65507;48.454;-2.058;2023-12-20T01:43:17;9.90;85.20
76613;DHT22;65507;48.454;-2.058;2023-12-20T01:45:42;9.90;85.20
76613;DHT22;65507;48.454;-2.058;2023-12-20T01:48:09;9.90;85.20
76613;DHT22;65507;48.454;-2.058;2023-12-20T01:50:36;10.00;85.20
76613;DHT22;65507;48.454;-2.058;2023-12-20T01:53:04;10.00;85.20
76613;DHT22;65507;48.454;-2.058;2023-12-20T01:55:33;10.00;85.20
76613;DHT22;65507;48.454;-2.058;2023-12-20T01:58:00;10.00;85.20
76613;DHT22;65507;48.454;-2.058;2023-12-20T02:00:26;9.90;85.30
76613;DHT22;65507;48.454;-2.058;2023-12-20T02:02:54;9.80;85.40
76613;DHT22;65507;48.454;-2.058;2023-12-20T02:05:21;9.80;85.60
76613;DHT22;65507;48.454;-2.058;2023-12-20T02:07:47;9.70;85.60
76613;DHT22;65507;48.454;-2.058;2023-12-20T02:10:13;9.70;85.70
76613;DHT22;65507;48.454;-2.058;2023-12-20T02:12:39;9.60;85.60
76613;DHT22;65507;48.454;-2.058;2023-12-20T02:15:05;9.60;85.70
76613;DHT22;65507;48.454;-2.058;2023-12-20T02:17:32;9.60;85.70
76613;DHT22;65507;48.454;-2.058;2023-12-20T02:19:57;9.60;85.60
76613;DHT22;65507;48.454;-2.058;2023-12-20T02:22:23;9.60;85.60
76613;DHT22;65507;48.454;-2.058;2023-12-20T02:24:49;9.60;85.50
76613;DHT22;65507;48.454;-2.058;2023-12-20T02:27:15;9.60;85.40
76613;DHT22;65507;48.454;-2.058;2023-12-20T02:29:43;9.60;85.40
76613;DHT22;65507;48.454;-2.058;2023-12-20T02:32:09;9.60;85.40
76613;DHT22;65507;48.454;-2.058;2023-12-20T02:34:34;9.60;85.50
76613;DHT22;65507;48.454;-2.058;2023-12-20T02:37:00;9.60;85.50
76613;DHT22;65507;48.454;-2.058;2023-12-20T02:39:26;9.50;85.50
76613;DHT22;65507;48.454;-2.058;2023-12-20T02:41:51;9.60;85.60
76613;DHT22;65507;48.454;-2.058;2023-12-20T02:44:17;9.60;85.60
76613;DHT22;65507;48.454;-2.058;2023-12-20T02:46:42;9.60;85.70
76613;DHT22;65507;48.454;-2.058;2023-12-20T02:49:08;9.60;85.70
76613;DHT22;65507;48.454;-2.058;2023-12-20T02:51:34;9.50;85.70
76613;DHT22;65507;48.454;-2.058;2023-12-20T02:53:59;9.50;85.70
76613;DHT22;65507;48.454;-2.058;2023-12-20T02:56:25;9.50;85.80
76613;DHT22;65507;48.454;-2.058;2023-12-20T02:58:51;9.50;85.90
76613;DHT22;65507;48.454;-2.058;2023-12-20T03:01:16;9.50;85.90
76613;DHT22;65507;48.454;-2.058;2023-12-20T03:03:42;9.50;86.00
76613;DHT22;65507;48.454;-2.058;2023-12-20T03:06:07;9.50;86.00
76613;DHT22;65507;48.454;-2.058;2023-12-20T03:08:33;9.50;86.00
76613;DHT22;65507;48.454;-2.058;2023-12-20T03:10:59;9.50;86.00
76613;DHT22;65507;48.454;-2.058;2023-12-20T03:13:25;9.50;86.00
76613;DHT22;65507;48.454;-2.058;2023-12-20T03:15:51;9.50;86.10
76613;DHT22;65507;48.454;-2.058;2023-12-20T03:18:16;9.50;86.10
76613;DHT22;65507;48.454;-2.058;2023-12-20T03:20:43;9.50;86.10
76613;DHT22;65507;48.454;-2.058;2023-12-20T03:23:09;9.50;86.20
76613;DHT22;65507;48.454;-2.058;2023-12-20T03:25:34;9.50;86.30
76613;DHT22;65507;48.454;-2.058;2023-12-20T03:28:00;9.70;86.40
76613;DHT22;65507;48.454;-2.058;2023-12-20T03:30:26;9.50;86.20
76613;DHT22;65507;48.454;-2.058;2023-12-20T03:32:51;9.50;86.20
76613;DHT22;65507;48.454;-2.058;2023-12-20T03:35:17;9.50;86.20
76613;DHT22;65507;48.454;-2.058;2023-12-20T03:37:43;9.50;86.20
76613;DHT22;65507;48.454;-2.058;2023-12-20T03:40:09;9.60;86.30
76613;DHT22;65507;48.454;-2.058;2023-12-20T03:42:34;9.60;86.30
76613;DHT22;65507;48.454;-2.058;2023-12-20T03:45:00;9.60;86.30
76613;DHT22;65507;48.454;-2.058;2023-12-20T03:47:26;9.50;86.40
76613;DHT22;65507;48.454;-2.058;2023-12-20T03:49:52;9.50;86.50
76613;DHT22;65507;48.454;-2.058;2023-12-20T03:52:18;9.40;86.60
76613;DHT22;65507;48.454;-2.058;2023-12-20T03:54:44;9.40;86.80
76613;DHT22;65507;48.454;-2.058;2023-12-20T03:57:09;9.30;87.00
76613;DHT22;65507;48.454;-2.058;2023-12-20T03:59:36;9.30;87.10
76613;DHT22;65507;48.454;-2.058;2023-12-20T04:02:02;9.20;87.10
76613;DHT22;65507;48.454;-2.058;2023-12-20T04:04:28;9.20;87.30
76613;DHT22;65507;48.454;-2.058;2023-12-20T04:06:53;9.20;87.40
76613;DHT22;65507;48.454;-2.058;2023-12-20T04:09:22;9.20;87.50
76613;DHT22;65507;48.454;-2.058;2023-12-20T04:11:48;9.20;87.40
76613;DHT22;65507;48.454;-2.058;2023-12-20T04:14:13;9.10;87.30
76613;DHT22;65507;48.454;-2.058;2023-12-20T04:16:39;9.10;87.40
76613;DHT22;65507;48.454;-2.058;2023-12-20T04:19:05;9.10;87.40
76613;DHT22;65507;48.454;-2.058;2023-12-20T04:21:30;9.10;87.40
76613;DHT22;65507;48.454;-2.058;2023-12-20T04:23:56;9.10;87.40
76613;DHT22;65507;48.454;-2.058;2023-12-20T04:26:22;9.00;87.50
76613;DHT22;65507;48.454;-2.058;2023-12-20T04:28:48;9.00;87.60
76613;DHT22;65507;48.454;-2.058;2023-12-20T04:31:13;9.00;87.70
76613;DHT22;65507;48.454;-2.058;2023-12-20T04:33:40;8.90;87.70
76613;DHT22;65507;48.454;-2.058;2023-12-20T04:36:06;8.90;87.80
76613;DHT22;65507;48.454;-2.058;2023-12-20T04:38:32;8.80;87.70
76613;DHT22;65507;48.454;-2.058;2023-12-20T04:40:57;8.80;87.80
76613;DHT22;65507;48.454;-2.058;2023-12-20T04:43:23;8.80;87.80
76613;DHT22;65507;48.454;-2.058;2023-12-20T04:45:48;8.80;87.90
76613;DHT22;65507;48.454;-2.058;2023-12-20T04:48:14;8.80;87.80
76613;DHT22;65507;48.454;-2.058;2023-12-20T04:50:40;8.70;87.80
76613;DHT22;65507;48.454;-2.058;2023-12-20T04:53:05;8.70;87.80
76613;DHT22;65507;48.454;-2.058;2023-12-20T04:55:31;8.70;87.90
76613;DHT22;65507;48.454;-2.058;2023-12-20T04:57:56;8.70;87.90
76613;DHT22;65507;48.454;-2.058;2023-12-20T05:00:22;8.70;87.90
76613;DHT22;65507;48.454;-2.058;2023-12-20T05:02:48;8.70;87.90
76613;DHT22;65507;48.454;-2.058;2023-12-20T05:05:14;8.70;87.90
76613;DHT22;65507;48.454;-2.058;2023-12-20T05:07:40;8.70;87.90
76613;DHT22;65507;48.454;-2.058;2023-12-20T05:10:06;8.80;88.10
76613;DHT22;65507;48.454;-2.058;2023-12-20T05:12:33;8.70;88.80
76613;DHT22;65507;48.454;-2.058;2023-12-20T05:14:59;8.70;87.90
76613;DHT22;65507;48.454;-2.058;2023-12-20T05:17:25;8.80;87.80
76613;DHT22;65507;48.454;-2.058;2023-12-20T05:19:51;8.80;87.80
76613;DHT22;65507;48.454;-2.058;2023-12-20T05:22:17;8.90;87.80
76613;DHT22;65507;48.454;-2.058;2023-12-20T05:24:42;8.90;87.50
76613;DHT22;65507;48.454;-2.058;2023-12-20T05:27:08;9.00;87.50
76613;DHT22;65507;48.454;-2.058;2023-12-20T05:29:34;9.10;87.40
76613;DHT22;65507;48.454;-2.058;2023-12-20T05:31:59;9.20;87.20
76613;DHT22;65507;48.454;-2.058;2023-12-20T05:34:25;9.20;87.10
76613;DHT22;65507;48.454;-2.058;2023-12-20T05:36:51;9.20;87.10
76613;DHT22;65507;48.454;-2.058;2023-12-20T05:39:16;9.20;87.00
76613;DHT22;65507;48.454;-2.058;2023-12-20T05:41:42;9.20;87.20
76613;DHT22;65507;48.454;-2.058;2023-12-20T05:44:08;9.10;87.30
76613;DHT22;65507;48.454;-2.058;2023-12-20T05:46:33;9.10;87.40
76613;DHT22;65507;48.454;-2.058;2023-12-20T05:48:59;9.00;87.60
76613;DHT22;65507;48.454;-2.058;2023-12-20T05:51:25;9.00;87.70
76613;DHT22;65507;48.454;-2.058;2023-12-20T05:53:51;9.00;87.80
76613;DHT22;65507;48.454;-2.058;2023-12-20T05:56:16;9.00;87.80
76613;DHT22;65507;48.454;-2.058;2023-12-20T05:58:42;9.00;87.70
76613;DHT22;65507;48.454;-2.058;2023-12-20T06:01:09;9.00;87.70
76613;DHT22;65507;48.454;-2.058;2023-12-20T06:03:34;9.00;87.60
76613;DHT22;65507;48.454;-2.058;2023-12-20T06:06:07;9.00;87.60
76613;DHT22;65507;48.454;-2.058;2023-12-20T06:08:33;9.10;87.50
76613;DHT22;65507;48.454;-2.058;2023-12-20T06:10:59;9.10;87.40
76613;DHT22;65507;48.454;-2.058;2023-12-20T06:13:25;9.10;87.40
76613;DHT22;65507;48.454;-2.058;2023-12-20T06:15:54;9.10;87.40
76613;DHT22;65507;48.454;-2.058;2023-12-20T06:18:19;9.20;87.40
76613;DHT22;65507;48.454;-2.058;2023-12-20T06:20:45;9.20;87.30
76613;DHT22;65507;48.454;-2.058;2023-12-20T06:23:11;9.20;87.20
76613;DHT22;65507;48.454;-2.058;2023-12-20T06:25:36;9.20;87.10
76613;DHT22;65507;48.454;-2.058;2023-12-20T06:28:02;9.20;87.00
76613;DHT22;65507;48.454;-2.058;2023-12-20T06:30:28;9.20;87.00
76613;DHT22;65507;48.454;-2.058;2023-12-20T06:32:54;9.20;87.10
76613;DHT22;65507;48.454;-2.058;2023-12-20T06:35:20;9.20;87.10
76613;DHT22;65507;48.454;-2.058;2023-12-20T06:37:45;9.20;87.20
76613;DHT22;65507;48.454;-2.058;2023-12-20T06:40:12;9.20;87.40
76613;DHT22;65507;48.454;-2.058;2023-12-20T06:42:38;9.20;87.30
76613;DHT22;65507;48.454;-2.058;2023-12-20T06:45:04;9.20;87.30
76613;DHT22;65507;48.454;-2.058;2023-12-20T06:47:29;9.20;87.30
76613;DHT22;65507;48.454;-2.058;2023-12-20T06:49:55;9.20;87.30
76613;DHT22;65507;48.454;-2.058;2023-12-20T06:52:21;9.20;87.30
76613;DHT22;65507;48.454;-2.058;2023-12-20T06:54:47;9.20;87.30
76613;DHT22;65507;48.454;-2.058;2023-12-20T06:57:13;9.20;87.40
76613;DHT22;65507;48.454;-2.058;2023-12-20T06:59:42;9.20;87.40
76613;DHT22;65507;48.454;-2.058;2023-12-20T07:02:08;9.20;87.40
76613;DHT22;65507;48.454;-2.058;2023-12-20T07:04:35;9.20;88.50
76613;DHT22;65507;48.454;-2.058;2023-12-20T07:07:04;9.10;87.60
76613;DHT22;65507;48.454;-2.058;2023-12-20T07:09:29;9.10;87.80
76613;DHT22;65507;48.454;-2.058;2023-12-20T07:11:55;9.10;87.90
76613;DHT22;65507;48.454;-2.058;2023-12-20T07:14:24;9.10;87.80
76613;DHT22;65507;48.454;-2.058;2023-12-20T07:16:49;9.10;87.90
76613;DHT22;65507;48.454;-2.058;2023-12-20T07:19:15;9.00;88.00
76613;DHT22;65507;48.454;-2.058;2023-12-20T07:21:41;9.00;88.90
76613;DHT22;65507;48.454;-2.058;2023-12-20T07:24:06;9.00;88.10
76613;DHT22;65507;48.454;-2.058;2023-12-20T07:26:32;9.00;88.10
76613;DHT22;65507;48.454;-2.058;2023-12-20T07:28:59;8.90;88.00
76613;DHT22;65507;48.454;-2.058;2023-12-20T07:31:25;9.00;88.00
76613;DHT22;65507;48.454;-2.058;2023-12-20T07:33:50;9.00;88.10
76613;DHT22;65507;48.454;-2.058;2023-12-20T07:36:16;9.00;88.00
76613;DHT22;65507;48.454;-2.058;2023-12-20T07:38:42;9.10;87.90
76613;DHT22;65507;48.454;-2.058;2023-12-20T07:41:10;9.10;87.80
76613;DHT22;65507;48.454;-2.058;2023-12-20T07:43:36;9.10;87.80
76613;DHT22;65507;48.454;-2.058;2023-12-20T07:46:06;9.10;87.70
76613;DHT22;65507;48.454;-2.058;2023-12-20T07:48:32;9.10;87.70
76613;DHT22;65507;48.454;-2.058;2023-12-20T07:50:57;9.20;87.60
76613;DHT22;65507;48.454;-2.058;2023-12-20T07:53:26;9.20;87.80
76613;DHT22;65507;48.454;-2.058;2023-12-20T07:55:52;9.20;87.70
76613;DHT22;65507;48.454;-2.058;2023-12-20T07:58:18;9.20;87.80
76613;DHT22;65507;48.454;-2.058;2023-12-20T08:00:44;9.20;87.80
76613;DHT22;65507;48.454;-2.058;2023-12-20T08:03:10;9.20;87.80
76613;DHT22;65507;48.454;-2.058;2023-12-20T08:05:35;9.30;87.80
76613;DHT22;65507;48.454;-2.058;2023-12-20T08:08:01;9.30;87.70
76613;DHT22;65507;48.454;-2.058;2023-12-20T08:10:27;9.40;87.60
76613;DHT22;65507;48.454;-2.058;2023-12-20T08:12:55;9.40;87.50
76613;DHT22;65507;48.454;-2.058;2023-12-20T08:15:21;9.50;87.50
76613;DHT22;65507;48.454;-2.058;2023-12-20T08:17:46;9.50;87.40
76613;DHT22;65507;48.454;-2.058;2023-12-20T08:20:12;9.50;87.30
76613;DHT22;65507;48.454;-2.058;2023-12-20T08:22:38;9.50;87.30
76613;DHT22;65507;48.454;-2.058;2023-12-20T08:25:04;9.50;87.50
76613;DHT22;65507;48.454;-2.058;2023-12-20T08:27:29;9.70;87.80
76613;DHT22;65507;48.454;-2.058;2023-12-20T08:29:57;9.40;87.70
76613;DHT22;65507;48.454;-2.058;2023-12-20T08:32:25;9.30;87.80
76613;DHT22;65507;48.454;-2.058;2023-12-20T08:34:51;9.20;88.10
76613;DHT22;65507;48.454;-2.058;2023-12-20T08:37:17;9.20;88.30
76613;DHT22;65507;48.454;-2.058;2023-12-20T08:39:43;9.20;88.30
76613;DHT22;65507;48.454;-2.058;2023-12-20T08:42:09;9.20;88.20
76613;DHT22;65507;48.454;-2.058;2023-12-20T08:44:35;9.20;88.20
76613;DHT22;65507;48.454;-2.058;2023-12-20T08:47:00;9.20;88.10
76613;DHT22;65507;48.454;-2.058;2023-12-20T08:49:27;9.30;88.10
76613;DHT22;65507;48.454;-2.058;2023-12-20T08:51:53;9.30;87.90
76613;DHT22;65507;48.454;-2.058;2023-12-20T08:54:19;9.40;87.80
76613;DHT22;65507;48.454;-2.058;2023-12-20T08:56:45;9.50;87.60
76613;DHT22;65507;48.454;-2.058;2023-12-20T08:59:11;9.50;87.40
76613;DHT22;65507;48.454;-2.058;2023-12-20T09:01:37;9.60;87.30
76613;DHT22;65507;48.454;-2.058;2023-12-20T09:04:03;9.70;87.10
76613;DHT22;65507;48.454;-2.058;2023-12-20T09:06:29;9.80;87.00
76613;DHT22;65507;48.454;-2.058;2023-12-20T09:08:58;9.90;86.90
76613;DHT22;65507;48.454;-2.058;2023-12-20T09:11:23;9.90;86.80
76613;DHT22;65507;48.454;-2.058;2023-12-20T09:13:49;10.00;86.80
76613;DHT22;65507;48.454;-2.058;2023-12-20T09:16:15;10.10;86.70
76613;DHT22;65507;48.454;-2.058;2023-12-20T09:18:41;10.10;86.60
76613;DHT22;65507;48.454;-2.058;2023-12-20T09:21:07;10.10;86.60
76613;DHT22;65507;48.454;-2.058;2023-12-20T09:23:33;10.20;86.60
76613;DHT22;65507;48.454;-2.058;2023-12-20T09:25:59;10.20;86.60
76613;DHT22;65507;48.454;-2.058;2023-12-20T09:28:24;10.30;86.40
76613;DHT22;65507;48.454;-2.058;2023-12-20T09:30:50;10.30;86.40
76613;DHT22;65507;48.454;-2.058;2023-12-20T09:33:16;10.30;86.40
76613;DHT22;65507;48.454;-2.058;2023-12-20T09:35:42;10.40;86.60
76613;DHT22;65507;48.454;-2.058;2023-12-20T09:38:08;10.40;86.40
76613;DHT22;65507;48.454;-2.058;2023-12-20T09:40:34;10.40;86.50
76613;DHT22;65507;48.454;-2.058;2023-12-20T09:43:05;10.40;86.40
76613;DHT22;65507;48.454;-2.058;2023-12-20T09:45:34;10.50;86.40
76613;DHT22;65507;48.454;-2.058;2023-12-20T09:48:00;10.40;86.50
76613;DHT22;65507;48.454;-2.058;2023-12-20T09:50:27;10.50;86.40
76613;DHT22;65507;48.454;-2.058;2023-12-20T09:52:53;10.50;86.30
76613;DHT22;65507;48.454;-2.058;2023-12-20T09:55:21;10.50;86.30
76613;DHT22;65507;48.454;-2.058;2023-12-20T09:57:48;10.50;86.20
76613;DHT22;65507;48.454;-2.058;2023-12-20T10:00:15;10.50;86.20
76613;DHT22;65507;48.454;-2.058;2023-12-20T10:02:48;10.40;86.30
76613;DHT22;65507;48.454;-2.058;2023-12-20T10:05:16;10.40;86.40
76613;DHT22;65507;48.454;-2.058;2023-12-20T10:07:45;10.40;86.40
76613;DHT22;65507;48.454;-2.058;2023-12-20T10:10:13;10.50;86.40
76613;DHT22;65507;48.454;-2.058;2023-12-20T10:12:38;10.50;86.20
76613;DHT22;65507;48.454;-2.058;2023-12-20T10:15:05;10.60;86.10
76613;DHT22;65507;48.454;-2.058;2023-12-20T10:17:31;10.60;86.00
76613;DHT22;65507;48.454;-2.058;2023-12-20T10:19:57;10.70;85.90
76613;DHT22;65507;48.454;-2.058;2023-12-20T10:22:24;10.70;85.70
76613;DHT22;65507;48.454;-2.058;2023-12-20T10:24:49;10.80;85.60
76613;DHT22;65507;48.454;-2.058;2023-12-20T10:27:18;10.90;85.60
76613;DHT22;65507;48.454;-2.058;2023-12-20T10:29:45;11.00;85.50
76613;DHT22;65507;48.454;-2.058;2023-12-20T10:32:29;11.00;85.30
76613;DHT22;65507;48.454;-2.058;2023-12-20T10:34:55;11.10;85.20
76613;DHT22;65507;48.454;-2.058;2023-12-20T10:37:22;11.20;85.20
76613;DHT22;65507;48.454;-2.058;2023-12-20T10:39:50;11.20;85.10
76613;DHT22;65507;48.454;-2.058;2023-12-20T10:42:22;11.20;85.10
76613;DHT22;65507;48.454;-2.058;2023-12-20T10:44:49;11.30;85.00
76613;DHT22;65507;48.454;-2.058;2023-12-20T10:47:15;11.20;85.10
76613;DHT22;65507;48.454;-2.058;2023-12-20T10:49:41;11.30;85.30
76613;DHT22;65507;48.454;-2.058;2023-12-20T10:52:08;11.30;85.10
76613;DHT22;65507;48.454;-2.058;2023-12-20T10:54:34;11.30;85.10
76613;DHT22;65507;48.454;-2.058;2023-12-20T10:57:00;11.30;85.20
76613;DHT22;65507;48.454;-2.058;2023-12-20T10:59:29;11.30;85.30
76613;DHT22;65507;48.454;-2.058;2023-12-20T11:01:59;11.40;85.30
76613;DHT22;65507;48.454;-2.058;2023-12-20T11:07:19;11.40;85.40
76613;DHT22;65507;48.454;-2.058;2023-12-20T11:09:58;11.50;85.40
76613;DHT22;65507;48.454;-2.058;2023-12-20T11:12:35;11.50;85.30
76613;DHT22;65507;48.454;-2.058;2023-12-20T11:15:02;11.60;85.10
76613;DHT22;65507;48.454;-2.058;2023-12-20T11:17:31;11.70;85.00
76613;DHT22;65507;48.454;-2.058;2023-12-20T11:22:27;11.90;84.90
76613;DHT22;65507;48.454;-2.058;2023-12-20T11:24:59;12.00;84.60
76613;DHT22;65507;48.454;-2.058;2023-12-20T11:27:27;12.10;84.40
76613;DHT22;65507;48.454;-2.058;2023-12-20T11:29:56;12.30;84.30
76613;DHT22;65507;48.454;-2.058;2023-12-20T11:37:40;12.40;84.00
76613;DHT22;65507;48.454;-2.058;2023-12-20T11:40:12;12.40;84.10
76613;DHT22;65507;48.454;-2.058;2023-12-20T11:42:50;12.40;84.20
76613;DHT22;65507;48.454;-2.058;2023-12-20T11:45:18;12.50;84.20
76613;DHT22;65507;48.454;-2.058;2023-12-20T11:47:47;12.50;84.40
76613;DHT22;65507;48.454;-2.058;2023-12-20T11:50:15;12.40;84.50
76613;DHT22;65507;48.454;-2.058;2023-12-20T11:52:41;12.30;84.60
76613;DHT22;65507;48.454;-2.058;2023-12-20T11:55:07;12.10;85.10
76613;DHT22;65507;48.454;-2.058;2023-12-20T11:57:33;12.00;85.60
76613;DHT22;65507;48.454;-2.058;2023-12-20T11:59:59;11.90;85.90
76613;DHT22;65507;48.454;-2.058;2023-12-20T12:02:25;11.80;86.10
76613;DHT22;65507;48.454;-2.058;2023-12-20T12:04:50;11.80;86.30
76613;DHT22;65507;48.454;-2.058;2023-12-20T12:07:17;11.80;86.30
76613;DHT22;65507;48.454;-2.058;2023-12-20T12:09:43;11.80;86.30
76613;DHT22;65507;48.454;-2.058;2023-12-20T12:12:10;11.80;86.30
76613;DHT22;65507;48.454;-2.058;2023-12-20T12:14:37;11.80;86.20
76613;DHT22;65507;48.454;-2.058;2023-12-20T12:17:04;11.90;86.10
76613;DHT22;65507;48.454;-2.058;2023-12-20T12:19:30;11.90;86.80
76613;DHT22;65507;48.454;-2.058;2023-12-20T12:22:11;12.10;85.80
76613;DHT22;65507;48.454;-2.058;2023-12-20T12:24:44;12.10;85.50
76613;DHT22;65507;48.454;-2.058;2023-12-20T12:27:12;12.10;85.40
76613;DHT22;65507;48.454;-2.058;2023-12-20T12:29:37;12.20;85.40
76613;DHT22;65507;48.454;-2.058;2023-12-20T12:32:08;12.20;85.40
76613;DHT22;65507;48.454;-2.058;2023-12-20T12:34:34;12.20;85.40
76613;DHT22;65507;48.454;-2.058;2023-12-20T12:37:00;12.10;85.50
76613;DHT22;65507;48.454;-2.058;2023-12-20T12:39:26;12.10;85.70
76613;DHT22;65507;48.454;-2.058;2023-12-20T12:41:52;12.10;85.90
76613;DHT22;65507;48.454;-2.058;2023-12-20T12:44:18;12.10;85.80
76613;DHT22;65507;48.454;-2.058;2023-12-20T12:46:46;12.10;85.80
76613;DHT22;65507;48.454;-2.058;2023-12-20T12:49:11;12.10;85.80
76613;DHT22;65507;48.454;-2.058;2023-12-20T12:51:37;12.10;85.80
76613;DHT22;65507;48.454;-2.058;2023-12-20T12:54:03;12.10;85.80
76613;DHT22;65507;48.454;-2.058;2023-12-20T12:56:29;12.20;85.80
76613;DHT22;65507;48.454;-2.058;2023-12-20T12:58:55;12.20;85.70
76613;DHT22;65507;48.454;-2.058;2023-12-20T13:01:21;12.30;85.50
76613;DHT22;65507;48.454;-2.058;2023-12-20T13:03:46;12.30;85.40
76613;DHT22;65507;48.454;-2.058;2023-12-20T13:06:12;12.30;85.40
76613;DHT22;65507;48.454;-2.058;2023-12-20T13:08:38;12.30;85.50
76613;DHT22;65507;48.454;-2.058;2023-12-20T13:11:04;12.30;85.40
76613;DHT22;65507;48.454;-2.058;2023-12-20T13:13:30;12.30;85.50
76613;DHT22;65507;48.454;-2.058;2023-12-20T13:15:56;12.30;85.60
76613;DHT22;65507;48.454;-2.058;2023-12-20T13:18:22;12.20;85.80
76613;DHT22;65507;48.454;-2.058;2023-12-20T13:20:48;12.10;85.90
76613;DHT22;65507;48.454;-2.058;2023-12-20T13:23:14;12.10;86.10
76613;DHT22;65507;48.454;-2.058;2023-12-20T13:25:41;12.00;86.20
76613;DHT22;65507;48.454;-2.058;2023-12-20T13:28:07;12.10;86.40
76613;DHT22;65507;48.454;-2.058;2023-12-20T13:30:34;12.00;86.30
76613;DHT22;65507;48.454;-2.058;2023-12-20T13:32:59;12.00;86.30
76613;DHT22;65507;48.454;-2.058;2023-12-20T13:35:25;12.00;86.30
76613;DHT22;65507;48.454;-2.058;2023-12-20T13:37:51;12.00;86.30
76613;DHT22;65507;48.454;-2.058;2023-12-20T13:40:17;12.10;86.30
76613;DHT22;65507;48.454;-2.058;2023-12-20T13:42:43;12.20;86.30
76613;DHT22;65507;48.454;-2.058;2023-12-20T13:45:09;12.20;86.20
76613;DHT22;65507;48.454;-2.058;2023-12-20T13:47:35;12.30;86.10
76613;DHT22;65507;48.454;-2.058;2023-12-20T13:50:02;12.30;86.00
76613;DHT22;65507;48.454;-2.058;2023-12-20T13:52:28;12.30;86.00
76613;DHT22;65507;48.454;-2.058;2023-12-20T13:54:53;12.30;86.10
76613;DHT22;65507;48.454;-2.058;2023-12-20T13:57:19;12.20;86.20
76613;DHT22;65507;48.454;-2.058;2023-12-20T13:59:45;12.20;86.40
76613;DHT22;65507;48.454;-2.058;2023-12-20T14:02:10;12.20;86.50
76613;DHT22;65507;48.454;-2.058;2023-12-20T14:04:36;12.20;86.60
76613;DHT22;65507;48.454;-2.058;2023-12-20T14:07:04;12.10;86.70
76613;DHT22;65507;48.454;-2.058;2023-12-20T14:09:30;12.20;86.70
76613;DHT22;65507;48.454;-2.058;2023-12-20T14:11:56;12.10;86.80
76613;DHT22;65507;48.454;-2.058;2023-12-20T14:14:21;12.10;86.80
76613;DHT22;65507;48.454;-2.058;2023-12-20T14:16:47;12.10;86.90
76613;DHT22;65507;48.454;-2.058;2023-12-20T14:19:13;12.10;86.80
76613;DHT22;65507;48.454;-2.058;2023-12-20T14:21:38;12.20;86.80
76613;DHT22;65507;48.454;-2.058;2023-12-20T14:24:04;12.20;86.70
76613;DHT22;65507;48.454;-2.058;2023-12-20T14:26:31;12.20;86.70
76613;DHT22;65507;48.454;-2.058;2023-12-20T14:29:00;12.20;86.80
76613;DHT22;65507;48.454;-2.058;2023-12-20T14:31:26;12.10;86.90
76613;DHT22;65507;48.454;-2.058;2023-12-20T14:33:52;12.10;87.00
76613;DHT22;65507;48.454;-2.058;2023-12-20T14:36:19;12.10;87.10
76613;DHT22;65507;48.454;-2.058;2023-12-20T14:38:46;12.10;87.20
76613;DHT22;65507;48.454;-2.058;2023-12-20T14:41:15;12.00;87.30
76613;DHT22;65507;48.454;-2.058;2023-12-20T14:43:43;12.00;87.40
76613;DHT22;65507;48.454;-2.058;2023-12-20T14:46:09;12.00;87.40
76613;DHT22;65507;48.454;-2.058;2023-12-20T14:48:34;12.00;87.50
76613;DHT22;65507;48.454;-2.058;2023-12-20T14:51:00;12.00;87.50
76613;DHT22;65507;48.454;-2.058;2023-12-20T14:53:26;11.90;87.50
76613;DHT22;65507;48.454;-2.058;2023-12-20T14:55:52;11.80;87.70
76613;DHT22;65507;48.454;-2.058;2023-12-20T14:58:18;11.80;87.70
76613;DHT22;65507;48.454;-2.058;2023-12-20T15:00:44;11.80;87.80
76613;DHT22;65507;48.454;-2.058;2023-12-20T15:03:10;11.80;87.80
76613;DHT22;65507;48.454;-2.058;2023-12-20T15:05:36;11.80;87.80
76613;DHT22;65507;48.454;-2.058;2023-12-20T15:08:02;11.80;87.90
76613;DHT22;65507;48.454;-2.058;2023-12-20T15:10:28;11.70;88.10
76613;DHT22;65507;48.454;-2.058;2023-12-20T15:12:54;11.70;88.10
76613;DHT22;65507;48.454;-2.058;2023-12-20T15:15:21;11.70;88.20
76613;DHT22;65507;48.454;-2.058;2023-12-20T15:17:47;11.70;89.20
76613;DHT22;65507;48.454;-2.058;2023-12-20T15:20:12;11.50;88.10
76613;DHT22;65507;48.454;-2.058;2023-12-20T15:22:39;11.60;88.30
76613;DHT22;65507;48.454;-2.058;2023-12-20T15:25:06;11.60;88.40
76613;DHT22;65507;48.454;-2.058;2023-12-20T15:27:36;11.60;88.40
76613;DHT22;65507;48.454;-2.058;2023-12-20T15:30:04;11.50;88.40